createdAt,value
2022-11-26T00:02:01.065Z,98099.66
2022-11-26T00:04:29.388Z,98102.19
2022-11-26T00:06:59.043Z,98100.50
2022-11-26T00:09:27.448Z,98100.50
2022-11-26T00:11:55.863Z,98107.53
2022-11-26T00:14:24.120Z,98100.59
2022-11-26T00:16:52.719Z,98104.91
2022-11-26T00:19:21.109Z,98101.34
2022-11-26T00:21:49.454Z,98107.53
2022-11-26T00:24:27.318Z,98110.19
2022-11-26T00:26:58.151Z,98118.06
2022-11-26T00:29:26.873Z,98114.69
2022-11-26T00:31:55.271Z,98117.97
2022-11-26T00:34:23.616Z,98108.50
2022-11-26T00:36:52.015Z,98117.22
2022-11-26T00:39:24.283Z,98121.63
2022-11-26T00:41:53.635Z,98121.63
2022-11-26T00:44:23.925Z,98125.97
2022-11-26T00:46:52.406Z,98132.91
2022-11-26T00:49:21.428Z,98137.31
2022-11-26T00:51:49.847Z,98132.06
2022-11-26T00:54:19.730Z,98132.25
2022-11-26T00:56:50.473Z,98135.63
2022-11-26T00:59:23.065Z,98136.47
2022-11-26T01:01:51.555Z,98131.22
2022-11-26T01:04:19.903Z,98130.38
2022-11-26T01:06:48.249Z,98140.78
2022-11-26T01:09:19.423Z,98131.22
2022-11-26T01:11:53.772Z,98143.53
2022-11-26T01:14:23.817Z,98149.53
2022-11-26T01:16:52.525Z,98147.94
2022-11-26T01:19:20.899Z,98150.47
2022-11-26T01:21:49.450Z,98148.69
2022-11-26T01:24:17.836Z,98156.69
2022-11-26T01:26:46.290Z,98150.78
2022-11-26T01:29:18.446Z,98155.84
2022-11-26T01:31:46.985Z,98161.09
2022-11-26T01:34:15.409Z,98161.94
2022-11-26T01:36:44.414Z,98146.25
2022-11-26T01:39:16.001Z,98168.97
2022-11-26T01:41:46.614Z,98164.75
2022-11-26T01:44:19.972Z,98168.34
2022-11-26T01:46:49.940Z,98174.34
2022-11-26T01:49:21.429Z,98172.56
2022-11-26T01:51:52.221Z,98171.72
2022-11-26T01:54:21.667Z,98176.13
2022-11-26T01:56:52.076Z,98184.88
2022-11-26T01:59:26.627Z,98182.13
2022-11-26T02:01:56.800Z,98184.03
2022-11-26T02:04:28.471Z,98182.13
2022-11-26T02:06:57.774Z,98185.59
2022-11-26T02:09:27.542Z,98190.97
2022-11-26T02:11:56.722Z,98187.59
2022-11-26T02:14:27.839Z,98197.91
2022-11-26T02:17:03.984Z,98192.66
2022-11-26T02:20:15.477Z,98192.66
2022-11-26T02:23:04.590Z,98186.66
2022-11-26T02:25:54.605Z,98192.84
2022-11-26T02:28:40.194Z,98192.75
2022-11-26T02:31:13.008Z,98192.84
2022-11-26T02:33:46.438Z,98193.69
2022-11-26T02:36:18.493Z,98187.69
2022-11-26T02:38:47.011Z,98198.97
2022-11-26T02:41:15.265Z,98199.06
2022-11-26T02:43:43.827Z,98204.22
2022-11-26T02:46:17.344Z,98208.63
2022-11-26T02:48:48.080Z,98202.44
2022-11-26T02:51:19.382Z,98198.13
2022-11-26T02:53:48.458Z,98205.06
2022-11-26T02:56:18.583Z,98213.16
2022-11-26T02:58:46.942Z,98214.00
2022-11-26T03:01:20.783Z,98225.34
2022-11-26T03:03:52.754Z,98234.19
2022-11-26T03:06:21.905Z,98238.50
2022-11-26T03:08:50.225Z,98235.97
2022-11-26T03:11:18.594Z,98241.13
2022-11-26T03:13:47.006Z,98247.44
2022-11-26T03:16:16.748Z,98241.13
2022-11-26T03:18:45.207Z,98235.03
2022-11-26T03:21:13.527Z,98240.19
2022-11-26T03:26:50.941Z,98234.19
2022-11-26T03:29:19.362Z,98233.44
2022-11-26T03:31:49.134Z,98236.16
2022-11-26T03:34:17.451Z,98230.81
2022-11-26T03:36:45.751Z,98235.13
2022-11-26T03:39:14.113Z,98246.41
2022-11-26T03:41:44.082Z,98240.38
2022-11-26T03:44:13.320Z,98254.47
2022-11-26T03:46:41.633Z,98248.28
2022-11-26T03:49:11.337Z,98260.69
2022-11-26T03:51:39.645Z,98264.16
2022-11-26T03:54:08.148Z,98269.31
2022-11-26T03:56:36.466Z,98273.66
2022-11-26T03:59:04.882Z,98279.94
2022-11-26T04:01:33.397Z,98275.44
2022-11-26T04:04:01.745Z,98285.00
2022-11-26T04:06:31.402Z,98289.63
2022-11-26T04:08:59.740Z,98286.97
2022-11-26T04:11:28.109Z,98287.72
2022-11-26T04:13:56.567Z,98288.59
2022-11-26T04:16:25.025Z,98287.72
2022-11-26T04:18:53.518Z,98297.41
2022-11-26T04:21:21.864Z,98294.03
2022-11-26T04:23:51.533Z,98298.25
2022-11-26T04:26:19.928Z,98303.63
2022-11-26T04:28:48.899Z,98305.31
2022-11-26T04:31:17.437Z,98308.88
2022-11-26T04:33:45.773Z,98315.91
2022-11-26T04:36:14.300Z,98313.38
2022-11-26T04:38:42.585Z,98321.28
2022-11-26T04:41:12.287Z,98325.69
2022-11-26T04:43:40.738Z,98320.53
2022-11-26T04:46:09.368Z,98329.25
2022-11-26T04:48:37.707Z,98323.16
2022-11-26T04:51:06.359Z,98330.09
2022-11-26T04:53:34.673Z,98334.31
2022-11-26T04:56:03.247Z,98337.06
2022-11-26T04:58:33.102Z,98337.91
2022-11-26T05:01:01.574Z,98336.13
2022-11-26T05:03:29.953Z,98335.25
2022-11-26T05:05:58.643Z,98346.72
2022-11-26T05:08:30.018Z,98342.31
2022-11-26T05:11:01.187Z,98344.09
2022-11-26T05:13:29.857Z,98337.06
2022-11-26T05:15:59.541Z,98343.06
2022-11-26T05:18:27.855Z,98344.00
2022-11-26T05:20:56.582Z,98355.28
2022-11-26T05:23:25.146Z,98358.00
2022-11-26T05:25:53.881Z,98366.72
2022-11-26T05:28:22.250Z,98372.94
2022-11-26T05:30:50.825Z,98373.78
2022-11-26T05:33:21.105Z,98379.03
2022-11-26T05:35:49.551Z,98381.66
2022-11-26T05:38:17.921Z,98390.41
2022-11-26T05:40:46.380Z,98381.66
2022-11-26T05:43:14.973Z,98381.75
2022-11-26T05:45:43.467Z,98380.91
2022-11-26T05:48:11.869Z,98387.88
2022-11-26T05:50:41.817Z,98377.34
2022-11-26T05:53:10.402Z,98369.66
2022-11-26T05:55:39.379Z,98380.06
2022-11-26T05:58:09.704Z,98378.19
2022-11-26T06:00:38.026Z,98387.03
2022-11-26T06:03:06.525Z,98389.75
2022-11-26T06:05:34.929Z,98399.25
2022-11-26T06:08:05.027Z,98393.13
2022-11-26T06:10:33.388Z,98393.97
2022-11-26T06:13:01.833Z,98400.16
2022-11-26T06:15:30.427Z,98403.84
2022-11-26T06:17:58.781Z,98406.28
2022-11-26T06:20:27.135Z,98406.28
2022-11-26T06:22:55.559Z,98410.69
2022-11-26T06:25:25.426Z,98412.47
2022-11-26T06:27:53.884Z,98406.28
2022-11-26T06:30:22.450Z,98405.34
2022-11-26T06:32:50.983Z,98415.09
2022-11-26T06:35:19.361Z,98416.72
2022-11-26T06:37:47.804Z,98420.38
2022-11-26T06:40:18.678Z,98418.50
2022-11-26T06:42:50.987Z,98421.13
2022-11-26T06:45:19.645Z,98429.84
2022-11-26T06:47:48.527Z,98428.16
2022-11-26T06:50:18.042Z,98434.28
2022-11-26T06:52:46.476Z,98441.31
2022-11-26T06:55:14.759Z,98436.25
2022-11-26T06:57:43.097Z,98451.00
2022-11-26T07:00:14.197Z,98455.31
2022-11-26T07:02:43.293Z,98454.56
2022-11-26T07:05:11.715Z,98460.75
2022-11-26T07:07:40.805Z,98453.81
2022-11-26T07:10:09.694Z,98458.03
2022-11-26T07:12:38.278Z,98457.28
2022-11-26T07:15:07.406Z,98465.25
2022-11-26T07:17:37.207Z,98454.06
2022-11-26T07:20:06.798Z,98472.22
2022-11-26T07:22:35.574Z,98468.75
2022-11-26T07:25:08.079Z,98477.56
2022-11-26T07:27:39.279Z,98474.84
2022-11-26T07:30:10.086Z,98474.75
2022-11-26T07:32:40.049Z,98472.97
2022-11-26T07:35:08.905Z,98470.34
2022-11-26T07:37:37.379Z,98478.22
2022-11-26T07:40:07.381Z,98476.53
2022-11-26T07:42:35.637Z,98480.00
2022-11-26T07:45:04.830Z,98487.06
2022-11-26T07:47:33.127Z,98488.75
2022-11-26T07:50:03.230Z,98486.03
2022-11-26T07:52:31.578Z,98490.44
2022-11-26T07:54:59.880Z,98490.34
2022-11-26T07:57:28.323Z,98499.09
2022-11-26T07:59:56.787Z,98500.78
2022-11-26T08:02:25.231Z,98501.53
2022-11-26T08:04:53.598Z,98503.31
2022-11-26T08:07:29.063Z,98498.91
2022-11-26T08:09:57.956Z,98506.81
2022-11-26T08:12:26.785Z,98506.72
2022-11-26T08:14:55.203Z,98508.31
2022-11-26T08:17:23.725Z,98512.72
2022-11-26T08:19:52.030Z,98517.16
2022-11-26T08:22:20.613Z,98524.09
2022-11-26T08:24:50.504Z,98517.91
2022-11-26T08:27:18.946Z,98518.00
2022-11-26T08:29:47.688Z,98524.09
2022-11-26T08:32:16.412Z,98521.56
2022-11-26T08:34:44.764Z,98522.41
2022-11-26T08:37:13.125Z,98527.50
2022-11-26T08:39:41.936Z,98530.88
2022-11-26T08:42:13.949Z,98529.19
2022-11-26T08:44:45.393Z,98539.63
2022-11-26T08:47:17.935Z,98548.34
2022-11-26T08:49:48.591Z,98550.03
2022-11-26T08:52:19.043Z,98558.03
2022-11-26T08:54:47.691Z,98560.66
2022-11-26T08:57:17.557Z,98565.84
2022-11-26T08:59:45.826Z,98566.78
2022-11-26T09:02:18.630Z,98564.13
2022-11-26T09:04:47.368Z,98565.91
2022-11-26T09:07:16.191Z,98573.72
2022-11-26T09:09:44.834Z,98574.56
2022-11-26T09:12:14.689Z,98571.94
2022-11-26T09:14:45.440Z,98577.97
2022-11-26T09:17:14.965Z,98584.06
2022-11-26T09:19:43.584Z,98590.28
2022-11-26T09:22:12.364Z,98578.81
2022-11-26T09:24:41.362Z,98591.22
2022-11-26T09:27:11.434Z,98593.84
2022-11-26T09:29:40.093Z,98592.81
2022-11-26T09:32:29.731Z,98594.50
2022-11-26T09:34:58.556Z,98595.34
2022-11-26T09:37:26.917Z,98592.53
2022-11-26T09:39:55.239Z,98594.41
2022-11-26T09:42:36.155Z,98581.16
2022-11-26T09:45:11.909Z,98588.03
2022-11-26T09:47:42.975Z,98584.47
2022-11-26T09:50:22.644Z,98588.88
2022-11-26T09:52:54.786Z,98598.38
2022-11-26T09:55:25.776Z,98596.59
2022-11-26T09:58:00.450Z,98594.81
2022-11-26T10:00:31.669Z,98593.13
2022-11-26T10:03:01.530Z,98589.56
2022-11-26T10:05:40.715Z,98586.75
2022-11-26T10:08:16.368Z,98585.31
2022-11-26T10:10:49.542Z,98570.84
2022-11-26T10:13:22.367Z,98574.97
2022-11-26T10:15:59.847Z,98580.78
2022-11-26T10:18:38.734Z,98581.63
2022-11-26T10:21:27.213Z,98579.31
2022-11-26T10:24:04.782Z,98576.69
2022-11-26T10:26:36.276Z,98576.84
2022-11-26T10:29:21.855Z,98570.84
2022-11-26T10:31:52.497Z,98579.66
2022-11-26T10:34:29.284Z,98579.66
2022-11-26T10:36:58.917Z,98580.69
2022-11-26T10:39:28.799Z,98565.75
2022-11-26T10:41:57.667Z,98572.72
2022-11-26T10:44:37.143Z,98571.88
2022-11-26T10:47:27.776Z,98569.31
2022-11-26T10:50:45.375Z,98570.16
2022-11-26T10:53:06.957Z,98563.13
2022-11-26T10:55:39.310Z,98566.59
2022-11-26T10:58:13.951Z,98555.97
2022-11-26T11:00:44.941Z,98558.72
2022-11-26T11:03:17.882Z,98559.47
2022-11-26T11:05:47.693Z,98557.00
2022-11-26T11:08:16.866Z,98555.13
2022-11-26T11:10:54.941Z,98555.97
2022-11-26T11:13:24.787Z,98555.78
2022-11-26T11:16:01.695Z,98557.50
2022-11-26T11:18:30.997Z,98555.13
2022-11-26T11:21:03.161Z,98554.19
2022-11-26T11:24:00.213Z,98551.84
2022-11-26T11:26:23.584Z,98553.44
2022-11-26T11:28:53.964Z,98555.22
2022-11-26T11:31:23.940Z,98556.91
2022-11-26T11:33:54.036Z,98564.06
2022-11-26T11:36:28.595Z,98552.78
2022-11-26T11:38:58.425Z,98555.41
2022-11-26T11:41:30.318Z,98558.97
2022-11-26T11:44:06.152Z,98562.56
2022-11-26T11:47:07.619Z,98561.81
2022-11-26T11:49:59.969Z,98552.22
2022-11-26T11:52:36.762Z,98545.91
2022-11-26T11:55:14.939Z,98551.09
2022-11-26T11:58:00.256Z,98557.38
2022-11-26T12:00:35.601Z,98566.03
2022-11-26T12:03:32.056Z,98565.09
2022-11-26T12:06:09.557Z,98566.03
2022-11-26T12:08:52.153Z,98559.84
2022-11-26T12:11:31.570Z,98558.81
2022-11-26T12:14:02.232Z,98566.50
2022-11-26T12:16:36.369Z,98566.41
2022-11-26T12:19:08.346Z,98570.75
2022-11-26T12:21:39.923Z,98560.22
2022-11-26T12:24:14.687Z,98554.00
2022-11-26T12:26:48.073Z,98555.78
2022-11-26T12:29:23.687Z,98559.38
2022-11-26T12:31:55.388Z,98552.97
2022-11-26T12:34:26.381Z,98550.06
2022-11-26T12:36:57.351Z,98555.31
2022-11-26T12:39:34.223Z,98542.81
2022-11-26T12:42:05.986Z,98540.94
2022-11-26T12:44:38.067Z,98547.97
2022-11-26T12:47:12.694Z,98558.72
2022-11-26T12:49:48.378Z,98554.47
2022-11-26T12:52:29.458Z,98562.38
2022-11-26T12:55:05.241Z,98563.13
2022-11-26T12:57:36.917Z,98564.81
2022-11-26T13:00:11.365Z,98561.06
2022-11-26T13:02:42.452Z,98561.06
2022-11-26T13:05:16.650Z,98561.91
2022-11-26T13:08:00.177Z,98561.16
2022-11-26T13:10:39.339Z,98555.78
2022-11-26T13:13:16.174Z,98562.75
2022-11-26T13:15:48.138Z,98563.59
2022-11-26T13:18:29.274Z,98565.38
2022-11-26T13:21:15.219Z,98563.59
2022-11-26T13:23:59.127Z,98564.53
2022-11-26T13:26:39.418Z,98557.56
2022-11-26T13:29:33.357Z,98554.00
2022-11-26T13:32:13.687Z,98549.50
2022-11-26T13:34:59.731Z,98549.28
2022-11-26T13:37:45.747Z,98536.03
2022-11-26T13:40:44.647Z,98547.22
2022-11-26T13:43:37.684Z,98541.84
2022-11-26T13:46:10.363Z,98542.72
2022-11-26T13:48:44.903Z,98538.28
2022-11-26T13:51:19.664Z,98532.06
2022-11-26T13:53:50.957Z,98544.22
2022-11-26T13:56:22.088Z,98541.56
2022-11-26T13:58:54.733Z,98537.16
2022-11-26T14:01:28.371Z,98543.16
2022-11-26T14:03:57.653Z,98542.31
2022-11-26T14:06:27.965Z,98544.00
2022-11-26T14:08:57.020Z,98551.81
2022-11-26T14:11:57.126Z,98542.22
2022-11-26T14:14:35.228Z,98536.00
2022-11-26T14:17:18.709Z,98537.72
2022-11-26T14:20:09.232Z,98540.25
2022-11-26T14:22:38.267Z,98543.53
2022-11-26T14:25:13.997Z,98534.59
2022-11-26T14:27:53.313Z,98538.81
2022-11-26T14:30:25.592Z,98543.16
2022-11-26T14:33:03.926Z,98544.84
2022-11-26T14:35:34.876Z,98551.78
2022-11-26T14:38:06.255Z,98557.88
2022-11-26T14:40:37.381Z,98561.28
2022-11-26T14:43:31.623Z,98559.47
2022-11-26T14:46:06.988Z,98555.16
2022-11-26T14:48:37.069Z,98557.78
2022-11-26T14:51:08.622Z,98555.91
2022-11-26T14:53:48.089Z,98565.69
2022-11-26T14:56:18.083Z,98563.16
2022-11-26T14:58:48.370Z,98565.94
2022-11-26T15:01:22.801Z,98563.47
2022-11-26T15:03:56.131Z,98572.25
2022-11-26T15:06:27.448Z,98577.50
2022-11-26T15:09:07.115Z,98575.81
2022-11-26T15:11:37.785Z,98582.03
2022-11-26T15:14:06.166Z,98582.97
2022-11-26T15:16:38.110Z,98583.91
2022-11-26T15:19:07.816Z,98584.84
2022-11-26T15:21:36.665Z,98581.38
2022-11-26T15:24:08.987Z,98583.16
2022-11-26T15:26:37.746Z,98587.59
2022-11-26T15:29:27.873Z,98579.78
2022-11-26T15:31:57.648Z,98588.53
2022-11-26T15:34:26.762Z,98589.38
2022-11-26T15:36:55.118Z,98590.31
2022-11-26T15:39:29.102Z,98586.94
2022-11-26T15:42:02.464Z,98586.09
2022-11-26T15:44:34.596Z,98591.34
2022-11-26T15:47:07.791Z,98587.97
2022-11-26T15:49:38.890Z,98582.69
2022-11-26T15:52:09.442Z,98587.97
2022-11-26T15:55:04.529Z,98587.13
2022-11-26T15:57:30.617Z,98582.69
2022-11-26T16:00:01.072Z,98593.22
2022-11-26T16:02:32.042Z,98581.84
2022-11-26T16:05:00.960Z,98581.94
2022-11-26T16:07:30.799Z,98578.38
2022-11-26T16:10:22.478Z,98586.28
2022-11-26T16:13:06.983Z,98576.66
2022-11-26T16:15:35.923Z,98574.13
2022-11-26T16:18:15.317Z,98586.47
2022-11-26T16:20:43.774Z,98575.06
2022-11-26T16:23:20.484Z,98583.06
2022-11-26T16:26:10.550Z,98576.13
2022-11-26T16:28:39.090Z,98580.44
2022-11-26T16:31:08.065Z,98577.81
2022-11-26T16:33:37.902Z,98579.59
2022-11-26T16:36:21.765Z,98578.84
2022-11-26T16:38:50.822Z,98581.56
2022-11-26T16:41:22.959Z,98592.09
2022-11-26T16:43:51.617Z,98592.00
2022-11-26T16:46:23.170Z,98585.91
2022-11-26T16:48:53.529Z,98592.00
2022-11-26T16:51:22.588Z,98592.00
2022-11-26T16:53:51.715Z,98588.53
2022-11-26T16:56:23.678Z,98586.75
2022-11-26T16:58:52.818Z,98584.97
2022-11-26T17:01:21.619Z,98592.88
2022-11-26T17:03:50.013Z,98596.34
2022-11-26T17:06:24.828Z,98592.09
2022-11-26T17:08:54.512Z,98586.84
2022-11-26T17:11:23.446Z,98595.59
2022-11-26T17:13:51.703Z,98590.31
2022-11-26T17:16:21.907Z,98590.41
2022-11-26T17:18:50.565Z,98592.09
2022-11-26T17:21:20.341Z,98591.25
2022-11-26T17:23:49.062Z,98589.47
2022-11-26T17:26:20.016Z,98589.47
2022-11-26T17:28:48.709Z,98587.78
2022-11-26T17:31:17.769Z,98589.66
2022-11-26T17:33:46.204Z,98595.69
2022-11-26T17:36:17.127Z,98598.41
2022-11-26T17:38:47.796Z,98596.63
2022-11-26T17:41:16.975Z,98595.78
2022-11-26T17:43:46.087Z,98593.16
2022-11-26T17:46:17.206Z,98591.44
2022-11-26T17:48:46.018Z,98597.66
2022-11-26T17:51:14.993Z,98604.63
2022-11-26T17:53:44.086Z,98597.56
2022-11-26T17:56:19.114Z,98599.44
2022-11-26T17:58:48.097Z,98599.44
2022-11-26T18:01:17.240Z,98596.91
2022-11-26T18:03:46.372Z,98599.53
2022-11-26T18:06:16.675Z,98603.97
2022-11-26T18:08:45.616Z,98606.59
2022-11-26T18:11:15.407Z,98608.38
2022-11-26T18:13:45.664Z,98610.34
2022-11-26T18:16:14.145Z,98616.28
2022-11-26T18:18:42.597Z,98624.19
2022-11-26T18:21:11.749Z,98622.50
2022-11-26T18:23:41.981Z,98626.81
2022-11-26T18:26:17.668Z,98623.44
2022-11-26T18:28:47.337Z,98625.22
2022-11-26T18:31:15.667Z,98628.69
2022-11-26T18:33:44.027Z,98621.84
2022-11-26T18:36:12.965Z,98631.34
2022-11-26T18:38:41.276Z,98629.81
2022-11-26T18:41:09.608Z,98632.38
2022-11-26T18:43:38.803Z,98628.03
2022-11-26T18:46:11.710Z,98627.28
2022-11-26T18:48:40.917Z,98628.03
2022-11-26T18:51:09.728Z,98628.03
2022-11-26T18:53:38.210Z,98632.47
2022-11-26T18:56:08.989Z,98627.19
2022-11-26T18:58:37.441Z,98614.97
2022-11-26T19:01:14.369Z,98616.66
2022-11-26T19:03:44.323Z,98614.13
2022-11-26T19:06:17.198Z,98624.66
2022-11-26T19:08:46.327Z,98615.06
2022-11-26T19:11:16.700Z,98625.69
2022-11-26T19:13:45.544Z,98617.88
2022-11-26T19:16:17.851Z,98633.69
2022-11-26T19:18:47.305Z,98624.84
2022-11-26T19:21:18.368Z,98625.78
2022-11-26T19:23:47.016Z,98633.69
2022-11-26T19:26:15.906Z,98624.09
2022-11-26T19:28:44.623Z,98629.44
2022-11-26T19:31:27.421Z,98622.47
2022-11-26T19:33:57.881Z,98620.69
2022-11-26T19:36:27.612Z,98611.94
2022-11-26T19:38:56.713Z,98613.72
2022-11-26T19:41:26.246Z,98604.13
2022-11-26T19:43:55.400Z,98609.50
2022-11-26T19:46:26.132Z,98603.38
2022-11-26T19:48:55.468Z,98612.97
2022-11-26T19:51:26.242Z,98608.66
2022-11-26T19:53:56.298Z,98600.09
2022-11-26T19:56:26.550Z,98603.38
2022-11-26T19:58:57.724Z,98599.06
2022-11-26T20:01:30.570Z,98600.00
2022-11-26T20:03:59.457Z,98600.84
2022-11-26T20:06:29.149Z,98604.41
2022-11-26T20:08:59.181Z,98602.63
2022-11-26T20:11:28.532Z,98595.66
2022-11-26T20:13:57.667Z,98592.09
2022-11-26T20:16:29.031Z,98598.38
2022-11-26T20:18:58.175Z,98593.22
2022-11-26T20:21:29.113Z,98595.00
2022-11-26T20:23:59.830Z,98591.53
2022-11-26T20:26:29.996Z,98589.75
2022-11-26T20:29:01.839Z,98590.69
2022-11-26T20:31:32.064Z,98584.56
2022-11-26T20:34:02.590Z,98588.88
2022-11-26T20:36:31.618Z,98581.94
2022-11-26T20:39:01.816Z,98579.19
2022-11-26T20:41:31.040Z,98579.47
2022-11-26T20:43:59.931Z,98575.81
2022-11-26T20:46:29.129Z,98582.03
2022-11-26T20:48:58.910Z,98581.94
2022-11-26T20:51:27.321Z,98576.75
2022-11-26T20:53:59.089Z,98586.44
2022-11-26T20:56:27.943Z,98578.53
2022-11-26T20:58:56.386Z,98580.41
2022-11-26T21:01:26.613Z,98576.00
2022-11-26T21:03:55.667Z,98579.47
2022-11-26T21:06:30.166Z,98584.75
2022-11-26T21:09:01.206Z,98584.84
2022-11-26T21:11:30.595Z,98584.75
2022-11-26T21:13:59.900Z,98579.56
2022-11-26T21:16:29.444Z,98576.94
2022-11-26T21:18:58.005Z,98583.06
2022-11-26T21:21:28.627Z,98584.75
2022-11-26T21:23:58.183Z,98583.06
2022-11-26T21:26:27.310Z,98582.19
2022-11-26T21:28:57.614Z,98566.69
2022-11-26T21:31:26.605Z,98573.56
2022-11-26T21:33:56.302Z,98566.50
2022-11-26T21:36:25.434Z,98574.41
2022-11-26T21:38:55.401Z,98572.63
2022-11-26T21:41:24.537Z,98567.25
2022-11-26T21:43:53.281Z,98569.13
2022-11-26T21:46:23.717Z,98577.03
2022-11-26T21:48:53.010Z,98571.75
2022-11-26T21:51:21.803Z,98572.78
2022-11-26T21:53:50.287Z,98570.06
2022-11-26T21:56:21.986Z,98570.25
2022-11-26T21:58:50.982Z,98579.66
2022-11-26T22:01:21.063Z,98571.00
2022-11-26T22:03:50.949Z,98572.78
2022-11-26T22:06:20.464Z,98564.06
2022-11-26T22:08:49.324Z,98572.88
2022-11-26T22:11:21.153Z,98568.47
2022-11-26T22:13:49.872Z,98574.59
2022-11-26T22:16:20.666Z,98577.22
2022-11-26T22:18:49.453Z,98569.31
2022-11-26T22:21:19.678Z,98561.50
2022-11-26T22:23:48.618Z,98563.28
2022-11-26T22:26:17.051Z,98572.03
2022-11-26T22:28:46.854Z,98586.13
2022-11-26T22:31:16.795Z,98582.66
2022-11-26T22:33:45.211Z,98581.72
2022-11-26T22:36:13.756Z,98581.94
2022-11-26T22:38:43.111Z,98586.22
2022-11-26T22:41:13.410Z,98590.66
2022-11-26T22:43:42.864Z,98587.09
2022-11-26T22:46:13.994Z,98596.03
2022-11-26T22:48:43.029Z,98599.41
2022-11-26T22:51:11.899Z,98595.09
2022-11-26T22:53:40.387Z,98600.38
2022-11-26T22:56:09.185Z,98587.38
2022-11-26T22:58:37.531Z,98591.72
2022-11-26T23:01:07.789Z,98594.34
2022-11-26T23:03:38.758Z,98593.41
2022-11-26T23:06:09.112Z,98591.81
2022-11-26T23:08:38.461Z,98584.75
2022-11-26T23:11:17.013Z,98583.06
2022-11-26T23:13:46.607Z,98577.88
2022-11-26T23:16:15.682Z,98576.09
2022-11-26T23:18:45.699Z,98573.47
2022-11-26T23:21:17.097Z,98566.50
2022-11-26T23:23:46.465Z,98562.19
2022-11-26T23:26:18.436Z,98556.91
2022-11-26T23:28:49.144Z,98564.06
2022-11-26T23:31:19.328Z,98563.97
2022-11-26T23:33:51.941Z,98568.38
2022-11-26T23:36:20.650Z,98558.78
2022-11-26T23:38:49.095Z,98558.78
2022-11-26T23:41:18.673Z,98557.84
2022-11-26T23:43:47.240Z,98557.94
2022-11-26T23:46:17.386Z,98562.38
2022-11-26T23:48:46.063Z,98557.19
2022-11-26T23:51:21.396Z,98556.34
2022-11-26T23:53:50.924Z,98553.72
2022-11-26T23:56:22.598Z,98544.88
2022-11-26T23:58:51.134Z,98544.03
